Lower Island Cove, Canada
Current Conditions -  °F | °C
As of 12:48 AM on Saturday 25 Oct 2014 (Local Time) from CYYT Reporting Station
Drizzle Drizzle  
Wind Chill: 50°   Ceiling: 400
Heat Index: 50°   Visibility: 3mi
Dew Point: 50°   Wind: 2mph
Humidity: 100%   Direction: 300°WNW
Pressure: 29.54"   Gusts: NA
Location:  48°N, 53°W
Report Text: CYYT 250248Z 30002KT 3SM -DZ BR OVC004 10/10 A2954 RMK SF8 SLP007
Loading
Personal Weather Stations






























Interactive Weather Map New forecast layout! Learn more

10-Day Weather Forecast

Advertisements
Track Severe Weather on mobile